Hlavní strana
METAR-TAF:

METAR-TAF

Letiště :

Mauricius, Mauritius

zeměpisná šířka: 20-26S, zeměpisná délka: 057-40E, výška: 55 m

Aktuální stav počasí

Zpráva byla vytvořena před 53 minutami, v 02:00 UTC
Jihojihozápadní vítr 11 kt
Teplota 21°C
Vlhkost vzduchu 64%
Tlak 1019 hPa
Viditelnost 10 km a více
Polojasno ve výšce 1600 ft
Polojasno ve výšce 5000 ft

METAR: FIMP 180200Z 20011KT 9999 SCT016 SCT050 21/14 Q1019

Čas: 06:53 (02:53 UTC)

Předpověď počasí

Zpráva byla vytvořena před 3 hodinami a 38 minutami, v 23:15 UTC
Předpověď platná od 18 v 00 UTC do 19 v 06 UTC
Jihojihovýchodní vítr 15 kt s nárazy do 25 kt
Viditelnost 10 km a více
Polojasno ve výšce 1800 ft
Pravděpodobnost 30% :
Dočasný
od 18 v 18 UTC do 19 v 00 UTC
Viditelnost: 7000 m
Skoro jasno ve výšce 1000 ft
Oblačno až skoro zataženo ve výšce 1600 ft
Oblačno až skoro zataženo ve výšce 5000 ft
slabé dešťové přeháňky

TAF: FIMP 172315Z 1800/1906 16015G25KT 9999 SCT018 PROB30 TEMPO 1818/1900 7000 -SHRA FEW010 BKN016 BKN050

Stav a předpovědi počasí z více než 4 000 letišť (zprávy METAR a TAF).

Červené a žluté tečky na mapě představují dostupné meteorologické stanice.

Když kurzor umístíte na tečku, zobrazí se název stanice.

Pak kliknutím zobrazíte stav a předpověď počasí.

Chcete-li změnit mapu, kliknutím na zelené tlačítko se znaménkem +mapu přiblížíte, kliknutím na zelené tlačítko se znaménkem – mapu oddálíte a kliknutím na zelené šipky přejdete na sousední mapy.


METAR-TAF: